Aérodrome :
LOGIN :

S'inscrire | Disclaimer

   EN    FR    IT 

 










Légende :    VFR   VFR Marginal   IFR   IFR Intensif   IFR Très Intensif
Visi : 
Plafond : 
>= 8 km
>= 3000ft
5 à 8 km
1000 à 3000 ft
1500m à 5 km
500 à 1000 ft
800 à 1500m
200 à 500 ft
< 800m
< 200 ft
Symboles :   Orages  Brouillard  Fortes neiges  Fortes précipitations  Vent > 20 kt
SIGMETs :   Divers  Orages  Givrage  Turbulence  Onde Orograph.  Cendres Volcan.






- Altitude de l'aérodrome : 1682 ft
- Code IATA : VIT


LEVT - Vitoria Gasteiz

DERNIER METAR :
  • 180100Z 10004KT 080V150 9999 -RA SCT028 BKN050 14/13 Q1015

METARs EXPIRÉS :
  • 180030Z 26001KT 9999 -RA SCT032 BKN050 14/13 Q1015
  • 180000Z 35003KT 290V050 9999 -RA FEW040 SCT070 14/13 Q1015
  • 172330Z 08002KT 9999 FEW050 SCT070 13/11 Q1015
  • 172300Z 01005KT 9999 FEW050 13/11 Q1015
  • 172230Z VRB02KT 9999 FEW050 13/11 Q1015

TAF TAF LEVT
Valide du 18 à 00h jusqu'au 19 à 00h UTC


172300Z 1800/1824 VRB04KT 9999 SCT020 BKN040 TX20/1815Z TN09/1806Z
TEMPO 1800/1803 3000 RA BKN010
PROB30
TEMPO 1803/1807 1500 BR BCFG
PROB30
TEMPO 1806/1815 01010KT



MET'MAP, la Météo Aéronautique d'un coup d'oeil ! - Copyright ORBIFLY Décembre 2007 - Disclaimer

ORBIFLY MET'MAP TEAM :

Programmation & Développement : Alexandra Zaïnal
Conception & Développement : Baudouin d'Aumeries
Co-Programmation & Développement : Marc-Olivier Méhu
Soutien technique & logistique : Manuel Goepfert

Contact : metmap@orbifly.com




SOURCES & CREDITS :

   NOAA